Safety Runner — WDI4835 — position and weather

sailwx.info

Track history (hours):
 
Tides and Currents Weather Stations Pressure Air Temp Water Temp Dewpoint Dewpoint Depression Visibility Wind Speed Wind Dir Waves Ship Positions

Safety Runner

Owner: American Commercial Barge Line LLC, Jeffersonville, IN. More information available from US FCC via Universal Licensing System and Coast Guard Vessel Documentation Center.

Last reported at 2017-Oct-19 13:55 UTC. Time now 2017-Oct-19 22:05 UTC.
Position N 29°58' W 093°52'.

Length 21 m; draft 3 m.

Type: Towing. MMSI: 367702520.

Date/timePositionNaut miles runAvg speedWind from/ knotsBaromVisibWave heightAir tempDewpointWater temp
2017-Oct-19 13:55N 29°58' W 093°52'  
2017-Oct-14 22:54N 30°04' W 093°40'2 5.3
2017-Oct-14 22:30N 30°04' W 093°38'3 5.6
2017-Oct-14 22:01N 30°04' W 093°34'3 5.4
2017-Oct-14 21:30N 30°04' W 093°31'3 5.7
2017-Oct-14 21:01N 30°04' W 093°28'3 5.7
2017-Oct-14 20:31N 30°04' W 093°25'3 5.4
2017-Oct-14 20:01N 30°04' W 093°22'3 5.2
2017-Oct-14 19:30N 30°05' W 093°20'2 3.4
2017-Oct-14 19:00N 30°05' W 093°18'1 2.0
2017-Oct-14 18:31N 30°05' W 093°17'1 1.3
2017-Oct-14 18:01N 30°04' W 093°16'2 5.0
2017-Oct-14 17:30N 30°02' W 093°15'2 4.2
2017-Oct-14 17:00N 30°00' W 093°14'4 5.0
2017-Oct-14 16:16N 29°57' W 093°11'1 5.2
2017-Oct-14 16:00N 29°56' W 093°10'43 4.6
2017-Oct-14 06:45N 29°51' W 092°21'2 5.2
2017-Oct-14 06:19N 29°50' W 092°18'2 5.2
2017-Oct-14 06:00N 29°49' W 092°17'3 5.5
2017-Oct-14 05:30N 29°48' W 092°14'2 4.7
2017-Oct-14 05:01N 29°47' W 092°12'1 1.8
2017-Oct-14 04:31N 29°47' W 092°11'2 3.9
2017-Oct-14 04:00N 29°47' W 092°09'2 4.9
2017-Oct-14 03:31N 29°48' W 092°06'2 4.9
2017-Oct-14 03:00N 29°49' W 092°03'58 4.5
2017-Oct-13 14:03N 29°36' W 090°58'0 5.6
2017-Oct-13 14:00N 29°35' W 090°58'3 5.5
2017-Oct-13 13:28N 29°34' W 090°55'3 5.9
2017-Oct-13 13:00N 29°32' W 090°52'3 5.9
2017-Oct-13 12:30N 29°32' W 090°49'3 5.9
2017-Oct-13 12:00N 29°32' W 090°46'3 5.4
2017-Oct-13 11:31N 29°34' W 090°43'3 5.1
2017-Oct-13 11:00N 29°36' W 090°43'1 1.7
2017-Oct-13 10:30N 29°37' W 090°42'3 5.1
2017-Oct-13 10:00N 29°36' W 090°39'2 4.8
2017-Oct-13 09:30N 29°35' W 090°36'2 5.0
2017-Oct-13 09:00N 29°34' W 090°34'  
Track history (hours):
 
Tides and Currents Weather Stations Pressure Air Temp Water Temp Dewpoint Dewpoint Depression Visibility Wind Speed Wind Dir Waves Ship Positions

Safety Runner

Owner: American Commercial Barge Line LLC, Jeffersonville, IN. More information available from US FCC via Universal Licensing System and Coast Guard Vessel Documentation Center.

Last reported at 2017-Oct-19 13:55 UTC. Time now 2017-Oct-19 22:05 UTC.
Position N 29°58' W 093°52'.

Length 21 m; draft 3 m.

Type: Towing. MMSI: 367702520.

Date/timePositionNaut miles runAvg speedWind from/ knotsBaromVisibWave heightAir tempDewpointWater temp
2017-Oct-19 13:55N 29°58' W 093°52'  
2017-Oct-14 22:54N 30°04' W 093°40'2 5.3
2017-Oct-14 22:30N 30°04' W 093°38'3 5.6
2017-Oct-14 22:01N 30°04' W 093°34'3 5.4
2017-Oct-14 21:30N 30°04' W 093°31'3 5.7
2017-Oct-14 21:01N 30°04' W 093°28'3 5.7
2017-Oct-14 20:31N 30°04' W 093°25'3 5.4
2017-Oct-14 20:01N 30°04' W 093°22'3 5.2
2017-Oct-14 19:30N 30°05' W 093°20'2 3.4
2017-Oct-14 19:00N 30°05' W 093°18'1 2.0
2017-Oct-14 18:31N 30°05' W 093°17'1 1.3
2017-Oct-14 18:01N 30°04' W 093°16'2 5.0
2017-Oct-14 17:30N 30°02' W 093°15'2 4.2
2017-Oct-14 17:00N 30°00' W 093°14'4 5.0
2017-Oct-14 16:16N 29°57' W 093°11'1 5.2
2017-Oct-14 16:00N 29°56' W 093°10'43 4.6
2017-Oct-14 06:45N 29°51' W 092°21'2 5.2
2017-Oct-14 06:19N 29°50' W 092°18'2 5.2
2017-Oct-14 06:00N 29°49' W 092°17'3 5.5
2017-Oct-14 05:30N 29°48' W 092°14'2 4.7
2017-Oct-14 05:01N 29°47' W 092°12'1 1.8
2017-Oct-14 04:31N 29°47' W 092°11'2 3.9
2017-Oct-14 04:00N 29°47' W 092°09'2 4.9
2017-Oct-14 03:31N 29°48' W 092°06'2 4.9
2017-Oct-14 03:00N 29°49' W 092°03'58 4.5
2017-Oct-13 14:03N 29°36' W 090°58'0 5.6
2017-Oct-13 14:00N 29°35' W 090°58'3 5.5
2017-Oct-13 13:28N 29°34' W 090°55'3 5.9
2017-Oct-13 13:00N 29°32' W 090°52'3 5.9
2017-Oct-13 12:30N 29°32' W 090°49'3 5.9
2017-Oct-13 12:00N 29°32' W 090°46'3 5.4
2017-Oct-13 11:31N 29°34' W 090°43'3 5.1
2017-Oct-13 11:00N 29°36' W 090°43'1 1.7
2017-Oct-13 10:30N 29°37' W 090°42'3 5.1
2017-Oct-13 10:00N 29°36' W 090°39'2 4.8
2017-Oct-13 09:30N 29°35' W 090°36'2 5.0
2017-Oct-13 09:00N 29°34' W 090°34'  

Dump ship's entire track history